Airfield :
LOGIN :

Register | Disclaimer

   EN    FR    IT 

 










Legend :    VFR   Marginal VFR   IFR   Intensive IFR   Very Intensive IFR
Visi :
Ceiling :
>= 8 km
>= 3000ft
5 to 8 km
1000 to 3000 ft
1500m to 5 km
500 to 1000 ft
800 to 1500m
200 to 500 ft
< 800m
< 200 ft
Symbols :   Thunderstorms  Fog  Heavy snow  Heavy precipitations  Wind > 20 kt
SIGMETs :     Misc.  Thunderstorms  Icing  Turbulence  Mountain Waves  Volcanic Ashes






- Airport Elevation : 297 ft
- IATA code : UIP


LFRQ - Quimper Pluguffan

CURRENT METAR :
  • 120300Z AUTO VRB02KT 3500 BR VV/// 17/17 Q1012

EXPIRED METARs :
  • 120230Z AUTO 25003KT 1300 1100 R28/1300D BR VV/// 18/17 Q1012
  • 120200Z AUTO 26001KT 0450 0400 R28/0900U FG VV/// 17/17 Q1013
  • 120130Z AUTO 00000KT 0800 R28/1000N FG VV/// 18/17 Q1013
  • 120100Z AUTO 00000KT 1300 0900 R28/1200D BCFG VV/// 18/18 Q1013
  • 120030Z AUTO 16002KT 3600 BR FEW003 SCT110 OVC190 18/18 Q1013

TAF TAF LFRQ
Valid from the 11 at 18:00 until the 12 at 18:00 UTC


111700Z 1118/1218 16003KT CAVOK
BECMG 1120/1122 4000 BR OVC006
PROB30
TEMPO 1203/1206 0800 FG VV///
TEMPO 1206/1218 04020G33KT SHRA SCT010CB
PROB30
TEMPO 1206/1218 TSRA



MET'MAP, your aeronautical weather chart ! - Copyright ORBIFLY December 2007 - Disclaimer

ORBIFLY MET'MAP TEAM :

Programming & Development : Alexandra Zaïnal
Concept & original design : Baudouin d'Aumeries
Assistance for programming : Marc-Olivier Méhu
Technical & hardware support : Manuel Goepfert

Contact : metmap@orbifly.com




SOURCES & CREDITS :

   NOAA